Terminal Aerodrome Forecast
Issued by NWS

Home | Current Version | Previous Version | Text Only | Print | Product List | Glossary On
Versions: 1 2 3 4 5 6 7 8 9 10 11 12 13 14 15 16 17 18 19 20 21 22 23 24 25 26 27 28 29 30 31 32 33 34
000
FTAK31 PAFA 050815 AAA
TAFAMC
TAF AMD
PAMC 050815Z 0508/0606 22004KT P6SM VCSH OVC015
     FM051400 00000KT 6SM BR VCSH OVC015
     FM052100 00000KT P6SM SCT015 BKN025 OVC040
     FM060300 00000KT P6SM SCT025 OVC040=

USA.gov is the U.S. government's official web portal to all federal, state and local government web resources and services.